Terminal Aerodrome Forecast
Issued by NWS

Home | Current Version | Previous Version | Text Only | Print | Product List | Glossary On
Versions: 1 2 3 4 5 6 7 8 9 10 11 12 13 14 15 16 17 18 19 20 21 22 23 24 25 26 27 28 29 30 31 32
000
FTAK31 PAFA 262337
TAFAUN
TAF
PAUN 262337Z 2700/2724 23012KT 3SM -SN BKN012 BKN025 OVC030
     FM270500 24008KT 1 1/2SM -SN BR OVC015
     FM271700 25004KT 2SM -SN BR OVC025=

USA.gov is the U.S. government's official web portal to all federal, state and local government web resources and services.